Jefferson, MD (21755)

1:07 PM EDT on August 28, 2015 (GMT -0400)
WXFRNX | | Change Station
CLOSE
Current Station
Personal Weather Station
Location: Jefferson, MD
Elevation: 597 ft
Nearby Weather Stations

Elev 597 ft 39.37 °N, 77.53 °W | Updated 1 minute ago

Partly Cloudy
Partly Cloudy
78.7 °F
Feels Like 80 °F
N
0.0
Wind Variable Wind from ENE
Gusts 0.0 mph

Today
High -- | Low -- °F
--% Chance of Precip.
Yesterday
High -- | Low -- °F
Precip. -- in
6:34 AM 7:47 PM
Waxing Gibbous, 98% visible
Pressure 30.23 in
Visibility 10.0 miles
Clouds Mostly Cloudy 6000 ft
Heat Index 80 °F
Dew Point 63 °F
Humidity 59%
Rainfall 0.00 in
Snow Depth Not available.
UV 5 out of 12
Pollen 9.00 out of 12
Air Quality Not available.
Flu Activity Not available.
METAR KFDK 281650Z 27004KT 10SM BKN060 28/14 A3023
Pressure 30.23 in
Visibility 10.0 miles
Clouds Mostly Cloudy 6000 ft
Heat Index 80 °F
Dew Point 63 °F
Humidity 59%
Rainfall 0.00 in
Snow Depth Not available.
UV 5 out of 12
Pollen 9.00 out of 12
Air Quality Not available.
Flu Activity Not available.
METAR KFDK 281650Z 27004KT 10SM BKN060 28/14 A3023

10-Day Weather Forecast

×

Almanac

Astronomy

Aug. 28, 2015 Rise Set
Actual Time
Civil Twilight
Nautical Twilight
Astronomical Twilight
Moon
Length of Visible Light
Length of Day
Tomorrow will be .
, % of the Moon is Illuminated

Today's Extremes

State Highs State Lows

Community

WunderPhotos

Upload Photos

1,850,427 photos uploaded!

WunderBlogs® & News

Nearby

Air Quality

  Air Quality AQ Index Pollutant
Not available.

Snow Depth

Station Depth Elevation

Earthquake Activity

City Distance Mag. Time & Date
Minimum magnitude displayed is 2.5.

Coastal Water Temperatures

Place Temperature

Stations

Nearby Weather Stations

Station Location Temp. Windchill Dew Point Humidity Wind Precip. Elev Updated Type